High Tide — D5AA7 — position and weather

sailwx.info

Track history (hours):
 
Tides and Currents Weather Stations Pressure Air Temp Water Temp Dewpoint Dewpoint Depression Visibility Wind Speed Wind Dir Waves Ship Positions

High Tide

Last reported at 2017-Apr-14 20:50 UTC. Time now 2017-Apr-30 16:55 UTC.
Position N 30°57' E 123°10'.
Warning: this ship's position is 15 days out of date.

Length 183 m; draft 7 m.

Type: Tanker. MMSI: 636015337.

Date/timePositionNaut miles runAvg speedWind from/ knotsBaromVisibWave heightAir tempDewpointWater temp
2017-Apr-14 20:50N 30°57' E 123°10'8411.0
2017-Apr-14 13:15N 31°22' E 121°37'311.2
2017-Apr-14 13:00N 31°24' E 121°34'4 9.0
2017-Apr-14 12:30N 31°26' E 121°29'4 7.1
2017-Apr-14 12:00N 31°29' E 121°26'510.0
2017-Apr-14 11:30N 31°32' E 121°22'4 8.7
2017-Apr-14 11:00N 31°35' E 121°18'0 0.0
2017-Apr-13 19:08N 31°35' E 121°18'0 0.0
2017-Apr-13 18:44N 31°35' E 121°18'0 0.0
2017-Apr-13 18:29N 31°35' E 121°18'0 0.0
2017-Apr-13 13:14N 31°35' E 121°18'0 0.0
2017-Apr-13 11:35N 31°35' E 121°18'0 0.0
2017-Apr-12 23:44N 31°35' E 121°18'0 0.0
2017-Apr-12 09:09N 31°35' E 121°18'0 0.0
2017-Apr-12 09:00N 31°35' E 121°18'2 3.2
2017-Apr-12 08:30N 31°34' E 121°19'0 0.7
2017-Apr-12 07:57N 31°34' E 121°20'0 0.2
2017-Apr-12 07:30N 31°34' E 121°20'0 0.0
2017-Apr-12 07:00N 31°34' E 121°20'0 0.1
2017-Apr-12 06:12N 31°34' E 121°20'0 0.3
2017-Apr-12 06:00N 31°34' E 121°20'0 0.0
2017-Apr-12 05:30N 31°34' E 121°20'0 0.0
2017-Apr-12 05:00N 31°34' E 121°20'0 0.1
2017-Apr-12 04:30N 31°34' E 121°20'0 0.1
2017-Apr-12 04:00N 31°34' E 121°20'0 0.3
2017-Apr-12 03:30N 31°34' E 121°20'0 0.1
2017-Apr-12 03:00N 31°34' E 121°20'0 0.0
2017-Apr-12 02:30N 31°34' E 121°20'0 0.0
2017-Apr-12 02:00N 31°34' E 121°20'0 0.0
2017-Apr-12 01:30N 31°34' E 121°20'0 0.0
2017-Apr-12 01:00N 31°34' E 121°20'0 0.0
2017-Apr-12 00:30N 31°34' E 121°20'0 0.0
2017-Apr-12 00:00N 31°34' E 121°20'0 0.0
2017-Apr-11 23:30N 31°34' E 121°20'0 0.0
2017-Apr-11 23:00N 31°34' E 121°20'0 0.0
2017-Apr-11 22:30N 31°34' E 121°20'0 0.0
2017-Apr-11 22:00N 31°34' E 121°20'0 0.0
2017-Apr-11 21:30N 31°34' E 121°20'0 0.1
2017-Apr-11 21:00N 31°34' E 121°20'0 0.0
2017-Apr-11 20:30N 31°34' E 121°20'0 0.0
2017-Apr-11 20:00N 31°34' E 121°20'0 0.2
2017-Apr-11 19:30N 31°34' E 121°20'0 0.2
2017-Apr-11 19:00N 31°34' E 121°20'0 0.0
2017-Apr-11 18:30N 31°34' E 121°20'0 0.1
2017-Apr-11 18:00N 31°34' E 121°20'0 0.0
2017-Apr-11 17:30N 31°34' E 121°20'0 0.0
2017-Apr-11 17:00N 31°34' E 121°20'0 0.0
2017-Apr-11 16:30N 31°34' E 121°20'0 0.0
2017-Apr-11 16:00N 31°34' E 121°20'0 0.2
2017-Apr-11 15:30N 31°34' E 121°20'0 0.3
2017-Apr-11 15:00N 31°34' E 121°20'0 0.1
2017-Apr-11 14:30N 31°34' E 121°20'0 0.0
2017-Apr-11 13:30N 31°34' E 121°20'0 0.0
2017-Apr-11 13:00N 31°34' E 121°20'0 0.0
2017-Apr-11 12:30N 31°34' E 121°20'0 0.0
2017-Apr-11 12:00N 31°34' E 121°20'0 0.0
2017-Apr-11 11:30N 31°34' E 121°20'0 0.0
2017-Apr-11 11:00N 31°34' E 121°20'0 0.0
2017-Apr-11 10:30N 31°34' E 121°20'0 0.0
2017-Apr-11 10:00N 31°34' E 121°20'0 0.1
2017-Apr-11 09:30N 31°34' E 121°20'0 0.0
2017-Apr-11 09:00N 31°34' E 121°20'0 0.0
2017-Apr-11 08:30N 31°34' E 121°20'0 0.2
2017-Apr-11 08:00N 31°34' E 121°20'2 3.6
2017-Apr-11 07:30N 31°33' E 121°21'510.5
2017-Apr-11 07:00N 31°29' E 121°26'510.9
2017-Apr-11 06:30N 31°25' E 121°30'4 8.1
2017-Apr-11 05:59N 31°23' E 121°35'5 9.8
2017-Apr-11 05:30N 31°21' E 121°39'4 9.0
2017-Apr-11 05:00N 31°19' E 121°44'510.5
2017-Apr-11 04:30N 31°17' E 121°50'510.7
2017-Apr-11 04:00N 31°16' E 121°56'510.8
2017-Apr-11 03:30N 31°14' E 122°02'510.5
2017-Apr-11 03:00N 31°13' E 122°08'611.2
2017-Apr-11 02:30N 31°09' E 122°13'611.0
2017-Apr-11 02:00N 31°06' E 122°18'610.7
2017-Apr-11 01:29N 31°06' E 122°25'  
Track history (hours):
 
Tides and Currents Weather Stations Pressure Air Temp Water Temp Dewpoint Dewpoint Depression Visibility Wind Speed Wind Dir Waves Ship Positions

High Tide

Last reported at 2017-Apr-14 20:50 UTC. Time now 2017-Apr-30 16:55 UTC.
Position N 30°57' E 123°10'.
Warning: this ship's position is 15 days out of date.

Length 183 m; draft 7 m.

Type: Tanker. MMSI: 636015337.

Date/timePositionNaut miles runAvg speedWind from/ knotsBaromVisibWave heightAir tempDewpointWater temp
2017-Apr-14 20:50N 30°57' E 123°10'8411.0
2017-Apr-14 13:15N 31°22' E 121°37'311.2
2017-Apr-14 13:00N 31°24' E 121°34'4 9.0
2017-Apr-14 12:30N 31°26' E 121°29'4 7.1
2017-Apr-14 12:00N 31°29' E 121°26'510.0
2017-Apr-14 11:30N 31°32' E 121°22'4 8.7
2017-Apr-14 11:00N 31°35' E 121°18'0 0.0
2017-Apr-13 19:08N 31°35' E 121°18'0 0.0
2017-Apr-13 18:44N 31°35' E 121°18'0 0.0
2017-Apr-13 18:29N 31°35' E 121°18'0 0.0
2017-Apr-13 13:14N 31°35' E 121°18'0 0.0
2017-Apr-13 11:35N 31°35' E 121°18'0 0.0
2017-Apr-12 23:44N 31°35' E 121°18'0 0.0
2017-Apr-12 09:09N 31°35' E 121°18'0 0.0
2017-Apr-12 09:00N 31°35' E 121°18'2 3.2
2017-Apr-12 08:30N 31°34' E 121°19'0 0.7
2017-Apr-12 07:57N 31°34' E 121°20'0 0.2
2017-Apr-12 07:30N 31°34' E 121°20'0 0.0
2017-Apr-12 07:00N 31°34' E 121°20'0 0.1
2017-Apr-12 06:12N 31°34' E 121°20'0 0.3
2017-Apr-12 06:00N 31°34' E 121°20'0 0.0
2017-Apr-12 05:30N 31°34' E 121°20'0 0.0
2017-Apr-12 05:00N 31°34' E 121°20'0 0.1
2017-Apr-12 04:30N 31°34' E 121°20'0 0.1
2017-Apr-12 04:00N 31°34' E 121°20'0 0.3
2017-Apr-12 03:30N 31°34' E 121°20'0 0.1
2017-Apr-12 03:00N 31°34' E 121°20'0 0.0
2017-Apr-12 02:30N 31°34' E 121°20'0 0.0
2017-Apr-12 02:00N 31°34' E 121°20'0 0.0
2017-Apr-12 01:30N 31°34' E 121°20'0 0.0
2017-Apr-12 01:00N 31°34' E 121°20'0 0.0
2017-Apr-12 00:30N 31°34' E 121°20'0 0.0
2017-Apr-12 00:00N 31°34' E 121°20'0 0.0
2017-Apr-11 23:30N 31°34' E 121°20'0 0.0
2017-Apr-11 23:00N 31°34' E 121°20'0 0.0
2017-Apr-11 22:30N 31°34' E 121°20'0 0.0
2017-Apr-11 22:00N 31°34' E 121°20'0 0.0
2017-Apr-11 21:30N 31°34' E 121°20'0 0.1
2017-Apr-11 21:00N 31°34' E 121°20'0 0.0
2017-Apr-11 20:30N 31°34' E 121°20'0 0.0
2017-Apr-11 20:00N 31°34' E 121°20'0 0.2
2017-Apr-11 19:30N 31°34' E 121°20'0 0.2
2017-Apr-11 19:00N 31°34' E 121°20'0 0.0
2017-Apr-11 18:30N 31°34' E 121°20'0 0.1
2017-Apr-11 18:00N 31°34' E 121°20'0 0.0
2017-Apr-11 17:30N 31°34' E 121°20'0 0.0
2017-Apr-11 17:00N 31°34' E 121°20'0 0.0
2017-Apr-11 16:30N 31°34' E 121°20'0 0.0
2017-Apr-11 16:00N 31°34' E 121°20'0 0.2
2017-Apr-11 15:30N 31°34' E 121°20'0 0.3
2017-Apr-11 15:00N 31°34' E 121°20'0 0.1
2017-Apr-11 14:30N 31°34' E 121°20'0 0.0
2017-Apr-11 13:30N 31°34' E 121°20'0 0.0
2017-Apr-11 13:00N 31°34' E 121°20'0 0.0
2017-Apr-11 12:30N 31°34' E 121°20'0 0.0
2017-Apr-11 12:00N 31°34' E 121°20'0 0.0
2017-Apr-11 11:30N 31°34' E 121°20'0 0.0
2017-Apr-11 11:00N 31°34' E 121°20'0 0.0
2017-Apr-11 10:30N 31°34' E 121°20'0 0.0
2017-Apr-11 10:00N 31°34' E 121°20'0 0.1
2017-Apr-11 09:30N 31°34' E 121°20'0 0.0
2017-Apr-11 09:00N 31°34' E 121°20'0 0.0
2017-Apr-11 08:30N 31°34' E 121°20'0 0.2
2017-Apr-11 08:00N 31°34' E 121°20'2 3.6
2017-Apr-11 07:30N 31°33' E 121°21'510.5
2017-Apr-11 07:00N 31°29' E 121°26'510.9
2017-Apr-11 06:30N 31°25' E 121°30'4 8.1
2017-Apr-11 05:59N 31°23' E 121°35'5 9.8
2017-Apr-11 05:30N 31°21' E 121°39'4 9.0
2017-Apr-11 05:00N 31°19' E 121°44'510.5
2017-Apr-11 04:30N 31°17' E 121°50'510.7
2017-Apr-11 04:00N 31°16' E 121°56'510.8
2017-Apr-11 03:30N 31°14' E 122°02'510.5
2017-Apr-11 03:00N 31°13' E 122°08'611.2
2017-Apr-11 02:30N 31°09' E 122°13'611.0
2017-Apr-11 02:00N 31°06' E 122°18'610.7
2017-Apr-11 01:29N 31°06' E 122°25'  

Dump ship's entire track history